createdAt,value
2023-01-02T00:00:58.386Z,23.70
2023-01-02T00:03:25.424Z,20.70
2023-01-02T00:05:52.236Z,21.55
2023-01-02T00:08:18.957Z,20.98
2023-01-02T00:10:45.665Z,20.42
2023-01-02T00:13:12.389Z,19.75
2023-01-02T00:15:39.205Z,20.58
2023-01-02T00:18:06.028Z,20.13
2023-01-02T00:20:33.551Z,21.55
2023-01-02T00:23:00.409Z,21.70
2023-01-02T00:25:27.171Z,21.83
2023-01-02T00:27:54.826Z,21.30
2023-01-02T00:30:21.536Z,19.80
2023-01-02T00:32:48.249Z,22.50
2023-01-02T00:35:15.067Z,21.95
2023-01-02T00:37:41.768Z,21.38
2023-01-02T00:40:13.750Z,22.95
2023-01-02T00:42:43.572Z,22.27
2023-01-02T00:45:10.719Z,22.75
2023-01-02T00:47:37.515Z,22.60
2023-01-02T00:50:04.796Z,20.95
2023-01-02T00:52:31.506Z,24.40
2023-01-02T00:54:58.324Z,21.85
2023-01-02T00:57:25.061Z,21.50
2023-01-02T00:59:51.872Z,21.23
2023-01-02T01:02:18.744Z,21.77
2023-01-02T01:04:45.617Z,21.20
2023-01-02T01:07:12.387Z,19.73
2023-01-02T01:09:39.139Z,20.88
2023-01-02T01:12:05.886Z,19.42
2023-01-02T01:14:32.634Z,23.17
2023-01-02T01:16:59.948Z,22.92
2023-01-02T01:19:33.572Z,20.25
2023-01-02T01:22:00.459Z,21.77
2023-01-02T01:24:27.317Z,21.83
2023-01-02T01:26:54.045Z,19.85
2023-01-02T01:29:20.916Z,21.88
2023-01-02T01:31:47.682Z,21.55
2023-01-02T01:34:14.941Z,20.23
2023-01-02T01:36:41.710Z,19.92
2023-01-02T01:39:08.468Z,23.23
2023-01-02T01:41:35.192Z,20.25
2023-01-02T01:44:03.150Z,21.45
2023-01-02T01:46:32.704Z,19.48
2023-01-02T01:49:18.295Z,21.23
2023-01-02T01:51:53.104Z,22.23
2023-01-02T01:54:30.206Z,18.90
2023-01-02T01:56:59.171Z,21.17
2023-01-02T01:59:25.906Z,20.15
2023-01-02T02:01:52.863Z,21.42
2023-01-02T02:04:20.381Z,21.17
2023-01-02T02:06:47.441Z,20.00
2023-01-02T02:09:16.717Z,21.63
2023-01-02T02:11:43.569Z,20.98
2023-01-02T02:14:10.299Z,22.02
2023-01-02T02:16:42.186Z,20.92
2023-01-02T02:19:27.373Z,21.85
2023-01-02T02:22:17.563Z,21.70
2023-01-02T02:24:56.622Z,22.38
2023-01-02T02:27:46.155Z,23.38
2023-01-02T02:30:23.548Z,22.17
2023-01-02T02:33:35.491Z,22.42
2023-01-02T02:36:24.279Z,19.35
2023-01-02T02:39:13.007Z,20.88
2023-01-02T02:41:53.168Z,20.33
2023-01-02T02:44:45.471Z,23.95
2023-01-02T02:47:16.561Z,20.08
2023-01-02T02:49:58.749Z,22.63
2023-01-02T02:52:58.127Z,24.42
2023-01-02T02:55:28.495Z,21.85
2023-01-02T02:57:55.246Z,20.25
2023-01-02T03:00:23.608Z,21.55
2023-01-02T03:02:50.509Z,22.42
2023-01-02T03:05:21.747Z,22.83
2023-01-02T03:07:55.597Z,22.70
2023-01-02T03:10:50.280Z,22.55
2023-01-02T03:13:47.782Z,22.00
2023-01-02T03:16:24.174Z,21.15
2023-01-02T03:18:55.423Z,20.77
2023-01-02T03:21:31.499Z,19.85
2023-01-02T03:24:00.843Z,21.33
2023-01-02T03:26:28.992Z,21.45
2023-01-02T03:28:58.175Z,21.38
2023-01-02T03:31:25.473Z,21.15
2023-01-02T03:34:16.938Z,22.33
2023-01-02T03:36:45.229Z,20.73
2023-01-02T03:39:16.085Z,23.52
2023-01-02T03:41:53.564Z,19.08
2023-01-02T03:44:21.679Z,22.05
2023-01-02T03:46:58.270Z,21.40
2023-01-02T03:49:33.131Z,21.25
2023-01-02T03:51:59.913Z,21.77
2023-01-02T03:54:26.964Z,24.08
2023-01-02T03:57:10.249Z,24.25
2023-01-02T04:02:35.669Z,20.38
2023-01-02T04:05:10.740Z,22.45
2023-01-02T04:07:39.548Z,22.75
2023-01-02T04:10:07.214Z,21.73
2023-01-02T04:12:35.920Z,24.10
2023-01-02T04:15:05.783Z,21.60
2023-01-02T04:17:35.727Z,21.63
2023-01-02T04:20:03.758Z,21.70
2023-01-02T04:22:32.721Z,20.15
2023-01-02T04:25:13.681Z,24.35
2023-01-02T04:27:48.936Z,22.58
2023-01-02T04:30:15.794Z,22.45
2023-01-02T04:32:43.394Z,23.20
2023-01-02T04:35:14.517Z,22.42
2023-01-02T04:37:42.161Z,21.80
2023-01-02T04:40:23.649Z,20.15
2023-01-02T04:42:50.420Z,22.40
2023-01-02T04:45:17.311Z,23.20
2023-01-02T04:47:44.296Z,22.17
2023-01-02T04:50:11.252Z,21.90
2023-01-02T04:52:38.052Z,21.85
2023-01-02T04:55:08.313Z,19.40
2023-01-02T04:57:35.476Z,19.83
2023-01-02T05:00:02.744Z,20.52
2023-01-02T05:02:29.618Z,19.25
2023-01-02T05:04:56.431Z,21.60
2023-01-02T05:07:23.174Z,21.65
2023-01-02T05:09:49.956Z,24.08
2023-01-02T05:12:16.837Z,22.58
2023-01-02T05:14:43.643Z,20.27
2023-01-02T05:17:10.357Z,23.45
2023-01-02T05:19:37.094Z,20.98
2023-01-02T05:22:22.264Z,21.17
2023-01-02T05:24:49.030Z,22.85
2023-01-02T05:27:15.812Z,21.48
2023-01-02T05:29:42.572Z,19.98
2023-01-02T05:32:09.299Z,20.23
2023-01-02T05:34:36.033Z,20.58
2023-01-02T05:37:02.759Z,21.13
2023-01-02T05:39:29.469Z,22.88
2023-01-02T05:41:56.227Z,23.10
2023-01-02T05:44:22.955Z,21.52
2023-01-02T05:46:49.762Z,19.73
2023-01-02T05:49:16.584Z,21.05
2023-01-02T05:51:43.403Z,20.58
2023-01-02T05:54:10.089Z,19.90
2023-01-02T05:56:36.819Z,19.75
2023-01-02T05:59:07.045Z,19.80
2023-01-02T06:01:33.861Z,18.27
2023-01-02T06:04:00.847Z,20.25
2023-01-02T06:06:38.548Z,20.23
2023-01-02T06:09:05.496Z,19.77
2023-01-02T06:11:32.380Z,20.10
2023-01-02T06:13:59.339Z,20.27
2023-01-02T06:16:26.203Z,21.33
2023-01-02T06:18:52.977Z,21.42
2023-01-02T06:21:21.035Z,21.08
2023-01-02T06:23:48.101Z,20.45
2023-01-02T06:26:16.659Z,21.25
2023-01-02T06:28:43.656Z,19.45
2023-01-02T06:31:12.607Z,22.02
2023-01-02T06:33:39.753Z,20.55
2023-01-02T06:36:10.234Z,19.23
2023-01-02T06:38:37.347Z,18.95
2023-01-02T06:41:04.660Z,20.63
2023-01-02T06:43:31.535Z,21.20
2023-01-02T06:45:59.392Z,19.98
2023-01-02T06:48:26.394Z,19.83
2023-01-02T06:50:53.242Z,21.02
2023-01-02T06:53:20.165Z,20.38
2023-01-02T06:55:57.276Z,20.00
2023-01-02T06:58:24.637Z,23.40
2023-01-02T07:00:51.513Z,20.58
2023-01-02T07:03:18.417Z,20.55
2023-01-02T07:05:45.397Z,20.67
2023-01-02T07:08:12.425Z,20.77
2023-01-02T07:10:39.178Z,19.63
2023-01-02T07:13:05.918Z,19.90
2023-01-02T07:15:33.530Z,21.20
2023-01-02T07:18:00.324Z,20.90
2023-01-02T07:20:27.062Z,20.58
2023-01-02T07:22:54.115Z,21.05
2023-01-02T07:25:21.473Z,19.27
2023-01-02T07:27:48.256Z,19.70
2023-01-02T07:30:15.140Z,21.60
2023-01-02T07:32:43.376Z,18.23
2023-01-02T07:35:11.889Z,17.40
2023-01-02T07:37:38.751Z,19.55
2023-01-02T07:40:06.040Z,20.65
2023-01-02T07:42:32.849Z,18.42
2023-01-02T07:45:02.735Z,19.58
2023-01-02T07:47:29.564Z,19.70
2023-01-02T07:49:56.549Z,18.55
2023-01-02T07:52:23.443Z,19.17
2023-01-02T07:54:50.539Z,18.25
2023-01-02T07:57:17.407Z,18.73
2023-01-02T07:59:47.105Z,18.42
2023-01-02T08:02:14.135Z,18.95
2023-01-02T08:04:40.960Z,20.27
2023-01-02T08:07:07.706Z,18.67
2023-01-02T08:09:34.474Z,18.95
2023-01-02T08:12:01.215Z,17.58
2023-01-02T08:14:27.962Z,18.52
2023-01-02T08:16:54.799Z,16.77
2023-01-02T08:19:21.579Z,16.90
2023-01-02T08:21:48.291Z,16.90
2023-01-02T08:24:15.334Z,17.63
2023-01-02T08:26:42.105Z,17.58
2023-01-02T08:29:09.268Z,18.27
2023-01-02T08:31:41.774Z,18.10
2023-01-02T08:34:14.554Z,15.65
2023-01-02T08:36:41.984Z,19.40
2023-01-02T08:39:08.742Z,14.68
2023-01-02T08:41:37.442Z,16.33
2023-01-02T08:44:04.572Z,14.82
2023-01-02T08:46:36.856Z,17.38
2023-01-02T08:49:07.027Z,17.95
2023-01-02T08:51:33.782Z,17.83
2023-01-02T08:54:00.542Z,16.63
2023-01-02T08:56:31.189Z,17.25
2023-01-02T08:59:18.258Z,18.30
2023-01-02T09:01:45.074Z,17.63
2023-01-02T09:04:13.281Z,19.05
2023-01-02T09:06:40.674Z,18.45
2023-01-02T09:09:11.952Z,17.88
2023-01-02T09:11:42.479Z,16.10
2023-01-02T09:14:09.271Z,18.45
2023-01-02T09:16:36.011Z,16.88
2023-01-02T09:19:02.930Z,18.55
2023-01-02T09:21:29.822Z,18.25
2023-01-02T09:23:56.719Z,17.08
2023-01-02T09:26:23.455Z,17.08
2023-01-02T09:28:50.217Z,16.45
2023-01-02T09:31:17.347Z,16.60
2023-01-02T09:33:44.881Z,19.30
2023-01-02T09:36:12.831Z,16.65
2023-01-02T09:38:39.631Z,18.50
2023-01-02T09:41:22.018Z,17.90
2023-01-02T09:44:20.748Z,18.48
2023-01-02T09:47:06.329Z,17.10
2023-01-02T09:49:38.366Z,17.98
2023-01-02T09:52:07.371Z,17.05
2023-01-02T09:54:34.368Z,17.20
2023-01-02T09:57:13.281Z,18.05
2023-01-02T09:59:52.729Z,18.38
2023-01-02T10:02:56.747Z,16.55
2023-01-02T10:05:45.185Z,17.15
2023-01-02T10:08:13.727Z,17.25
2023-01-02T10:10:42.793Z,17.73
2023-01-02T10:14:08.298Z,15.88
2023-01-02T10:16:20.014Z,16.73
2023-01-02T10:18:49.281Z,16.42
2023-01-02T10:21:21.407Z,13.93
2023-01-02T10:24:03.903Z,16.98
2023-01-02T10:26:37.474Z,16.92
2023-01-02T10:29:32.463Z,16.38
2023-01-02T10:32:21.284Z,14.73
2023-01-02T10:35:02.339Z,14.93
2023-01-02T10:37:29.071Z,15.93
2023-01-02T10:39:55.841Z,14.63
2023-01-02T10:42:22.944Z,14.10
2023-01-02T10:44:49.728Z,16.10
2023-01-02T10:47:20.391Z,14.40
2023-01-02T10:49:47.758Z,18.38
2023-01-02T10:52:25.398Z,16.98
2023-01-02T10:54:59.767Z,14.55
2023-01-02T10:57:36.895Z,15.15
2023-01-02T11:00:05.822Z,16.30
2023-01-02T11:02:40.269Z,16.88
2023-01-02T11:05:08.743Z,15.45
2023-01-02T11:07:37.016Z,17.60
2023-01-02T11:10:05.033Z,16.08
2023-01-02T11:12:32.973Z,14.35
2023-01-02T11:15:13.032Z,16.92
2023-01-02T11:17:41.560Z,17.23
2023-01-02T11:20:27.587Z,16.60
2023-01-02T11:22:55.982Z,16.13
2023-01-02T11:25:27.320Z,14.38
2023-01-02T11:27:57.432Z,15.50
2023-01-02T11:30:36.975Z,16.02
2023-01-02T11:33:07.851Z,14.38
2023-01-02T11:35:38.489Z,14.25
2023-01-02T11:38:05.524Z,14.10
2023-01-02T11:40:32.564Z,14.68
2023-01-02T11:43:21.909Z,13.73
2023-01-02T11:45:48.637Z,14.40
2023-01-02T11:48:18.090Z,14.30
2023-01-02T11:50:45.121Z,14.07
2023-01-02T11:53:11.895Z,14.52
2023-01-02T11:55:42.656Z,13.15
2023-01-02T11:58:24.731Z,13.73
2023-01-02T12:00:53.543Z,15.27
2023-01-02T12:03:25.352Z,15.77
2023-01-02T12:06:17.164Z,15.57
2023-01-02T12:09:03.964Z,15.95
2023-01-02T12:11:43.024Z,16.17
2023-01-02T12:14:39.621Z,14.60
2023-01-02T12:17:13.341Z,14.15
2023-01-02T12:20:05.743Z,14.23
2023-01-02T12:22:54.219Z,16.63
2023-01-02T12:25:55.993Z,16.35
2023-01-02T12:28:52.896Z,18.88
2023-01-02T12:31:28.446Z,15.65
2023-01-02T12:34:20.097Z,15.75
2023-01-02T12:36:57.608Z,15.73
2023-01-02T12:39:40.761Z,15.70
2023-01-02T12:42:45.357Z,15.90
2023-01-02T12:45:21.888Z,15.07
2023-01-02T12:48:00.607Z,17.55
2023-01-02T12:51:04.433Z,16.50
2023-01-02T12:56:43.868Z,15.45
2023-01-02T12:59:30.737Z,16.25
2023-01-02T13:02:10.215Z,16.77
2023-01-02T13:04:40.449Z,14.45
2023-01-02T13:07:25.945Z,15.27
2023-01-02T13:09:52.717Z,16.70
2023-01-02T13:12:21.053Z,13.88
2023-01-02T13:14:52.676Z,14.90
2023-01-02T13:17:46.906Z,16.73
2023-01-02T13:20:30.944Z,15.57
2023-01-02T13:23:07.665Z,17.20
2023-01-02T13:25:34.433Z,17.83
2023-01-02T13:28:05.790Z,19.05
2023-01-02T13:30:43.037Z,18.85
2023-01-02T13:33:35.760Z,17.52
2023-01-02T13:36:17.235Z,17.40
2023-01-02T13:38:45.647Z,16.20
2023-01-02T13:41:16.809Z,15.43
2023-01-02T13:43:49.919Z,19.13
2023-01-02T13:49:07.606Z,17.52
2023-01-02T13:51:35.701Z,17.70
2023-01-02T13:54:12.212Z,16.55
2023-01-02T13:57:25.225Z,17.13
2023-01-02T14:00:21.680Z,15.77
2023-01-02T14:03:22.948Z,14.95
2023-01-02T14:06:01.548Z,16.52
2023-01-02T14:08:35.809Z,17.30
2023-01-02T14:11:10.839Z,17.35
2023-01-02T14:13:42.369Z,17.45
2023-01-02T14:16:30.423Z,17.27
2023-01-02T14:19:12.973Z,14.73
2023-01-02T14:21:59.387Z,15.65
2023-01-02T14:24:44.923Z,16.48
2023-01-02T14:27:32.036Z,15.20
2023-01-02T14:30:06.704Z,15.52
2023-01-02T14:32:43.198Z,15.60
2023-01-02T14:35:16.114Z,15.10
2023-01-02T14:37:43.691Z,14.02
2023-01-02T14:40:30.694Z,15.63
2023-01-02T14:43:23.580Z,15.30
2023-01-02T14:45:55.451Z,15.43
2023-01-02T14:48:30.710Z,14.75
2023-01-02T14:50:59.912Z,13.60
2023-01-02T14:53:30.379Z,14.68
2023-01-02T14:56:01.584Z,16.83
2023-01-02T14:58:57.394Z,13.57
2023-01-02T15:01:43.961Z,13.25
2023-01-02T15:04:39.046Z,14.20
2023-01-02T15:07:30.580Z,15.07
2023-01-02T15:10:01.055Z,13.35
2023-01-02T15:12:47.262Z,16.60
2023-01-02T15:15:23.961Z,14.25
2023-01-02T15:17:50.832Z,15.07
2023-01-02T15:20:21.844Z,14.77
2023-01-02T15:22:48.673Z,14.43
2023-01-02T15:25:29.277Z,15.25
2023-01-02T15:27:57.210Z,14.68
2023-01-02T15:30:34.550Z,15.18
2023-01-02T15:33:01.307Z,13.70
2023-01-02T15:35:29.888Z,14.70
2023-01-02T15:37:56.692Z,15.18
2023-01-02T15:40:23.412Z,16.08
2023-01-02T15:43:09.040Z,13.82
2023-01-02T15:45:35.774Z,13.70
2023-01-02T15:48:02.499Z,14.68
2023-01-02T15:50:29.736Z,13.88
2023-01-02T15:53:06.706Z,14.40
2023-01-02T15:55:36.330Z,15.48
2023-01-02T15:58:19.949Z,12.90
2023-01-02T16:00:46.842Z,13.75
2023-01-02T16:04:00.599Z,12.65
2023-01-02T16:06:29.139Z,13.18
2023-01-02T16:08:57.361Z,12.68
2023-01-02T16:11:24.165Z,13.60
2023-01-02T16:14:15.821Z,13.80
2023-01-02T16:16:57.971Z,14.18
2023-01-02T16:19:33.944Z,14.38
2023-01-02T16:22:14.298Z,13.63
2023-01-02T16:25:07.990Z,14.18
2023-01-02T16:27:46.813Z,14.07
2023-01-02T16:30:25.666Z,14.73
2023-01-02T16:32:52.417Z,14.77
2023-01-02T16:35:26.566Z,14.30
2023-01-02T16:37:57.196Z,14.65
2023-01-02T16:41:01.536Z,14.48
2023-01-02T16:43:11.804Z,14.82
2023-01-02T16:45:39.118Z,14.85
2023-01-02T16:48:06.426Z,14.63
2023-01-02T16:50:33.178Z,13.13
2023-01-02T16:53:03.345Z,13.73
2023-01-02T16:55:31.478Z,13.88
2023-01-02T16:57:58.220Z,11.95
2023-01-02T17:00:24.982Z,14.05
2023-01-02T17:02:51.780Z,14.18
2023-01-02T17:05:31.597Z,12.82
2023-01-02T17:07:58.351Z,14.45
2023-01-02T17:10:25.149Z,12.45
2023-01-02T17:12:52.012Z,14.63
2023-01-02T17:15:18.700Z,14.75
2023-01-02T17:17:45.423Z,13.88
2023-01-02T17:20:12.924Z,13.73
2023-01-02T17:22:39.780Z,13.32
2023-01-02T17:25:07.523Z,13.88
2023-01-02T17:27:34.473Z,14.02
2023-01-02T17:30:03.112Z,14.60
2023-01-02T17:32:30.774Z,14.23
2023-01-02T17:34:57.598Z,14.38
2023-01-02T17:37:24.713Z,12.23
2023-01-02T17:39:52.547Z,13.77
2023-01-02T17:42:19.539Z,12.38
2023-01-02T17:44:46.463Z,13.20
2023-01-02T17:50:00.199Z,12.68
2023-01-02T17:52:26.943Z,12.05
2023-01-02T17:54:56.746Z,11.93
2023-01-02T17:57:24.132Z,13.02
2023-01-02T17:59:51.445Z,12.75
2023-01-02T18:02:19.413Z,12.90
2023-01-02T18:04:54.312Z,12.52
2023-01-02T18:07:21.479Z,13.52
2023-01-02T18:10:07.773Z,14.63
2023-01-02T18:12:36.294Z,13.25
2023-01-02T18:15:11.796Z,13.57
2023-01-02T18:17:38.534Z,11.50
2023-01-02T18:20:13.027Z,11.77
2023-01-02T18:22:46.019Z,12.40
2023-01-02T18:25:20.641Z,12.93
2023-01-02T18:27:47.822Z,10.32
2023-01-02T18:30:19.564Z,11.82
2023-01-02T18:32:46.730Z,12.43
2023-01-02T18:35:46.699Z,13.50
2023-01-02T18:38:01.060Z,12.65
2023-01-02T18:40:35.397Z,12.40
2023-01-02T18:43:32.904Z,13.25
2023-01-02T18:46:00.470Z,11.63
2023-01-02T18:48:27.324Z,11.70
2023-01-02T18:50:59.381Z,11.85
2023-01-02T18:53:29.690Z,14.57
2023-01-02T18:56:00.971Z,14.00
2023-01-02T18:58:36.176Z,14.82
2023-01-02T19:01:17.398Z,15.63
2023-01-02T19:03:45.629Z,15.88
2023-01-02T19:06:22.206Z,14.23
2023-01-02T19:08:48.937Z,15.15
2023-01-02T19:11:52.694Z,15.68
2023-01-02T19:14:22.549Z,16.15
2023-01-02T19:17:18.627Z,14.18
2023-01-02T19:19:45.766Z,14.95
2023-01-02T19:22:24.033Z,15.32
2023-01-02T19:24:50.906Z,14.40
2023-01-02T19:27:24.836Z,15.07
2023-01-02T19:29:52.445Z,14.38
2023-01-02T19:32:30.093Z,15.68
2023-01-02T19:35:10.847Z,14.55
2023-01-02T19:37:41.450Z,15.75
2023-01-02T19:40:19.120Z,14.32
2023-01-02T19:42:47.751Z,12.40
2023-01-02T19:45:16.652Z,15.07
2023-01-02T19:47:43.516Z,14.35
2023-01-02T19:50:12.047Z,14.65
2023-01-02T19:52:38.893Z,13.80
2023-01-02T19:55:06.238Z,12.80
2023-01-02T19:57:33.551Z,15.25
2023-01-02T20:00:00.290Z,15.00
2023-01-02T20:02:27.516Z,13.35
2023-01-02T20:04:55.373Z,13.82
2023-01-02T20:07:22.954Z,13.45
2023-01-02T20:09:49.873Z,12.13
2023-01-02T20:12:34.843Z,13.63
2023-01-02T20:15:12.217Z,12.63
2023-01-02T20:17:39.268Z,13.20
2023-01-02T20:20:07.859Z,13.15
2023-01-02T20:22:34.623Z,13.18
2023-01-02T20:25:01.837Z,12.20
2023-01-02T20:27:28.581Z,12.57
2023-01-02T20:29:55.375Z,12.18
2023-01-02T20:32:22.480Z,13.23
2023-01-02T20:34:49.910Z,12.73
2023-01-02T20:37:21.000Z,13.25
2023-01-02T20:39:51.574Z,13.10
2023-01-02T20:42:18.639Z,14.32
2023-01-02T20:44:45.508Z,12.95
2023-01-02T20:47:12.292Z,12.63
2023-01-02T20:49:39.584Z,13.60
2023-01-02T20:52:07.042Z,14.82
2023-01-02T20:54:33.751Z,15.60
2023-01-02T20:57:00.623Z,15.52
2023-01-02T20:59:27.433Z,14.73
2023-01-02T21:01:54.297Z,12.88
2023-01-02T21:04:25.622Z,12.00
2023-01-02T21:06:56.156Z,13.20
2023-01-02T21:09:22.898Z,13.23
2023-01-02T21:11:49.734Z,13.25
2023-01-02T21:14:16.507Z,14.02
2023-01-02T21:16:43.355Z,14.88
2023-01-02T21:19:10.131Z,14.73
2023-01-02T21:21:37.115Z,15.27
2023-01-02T21:24:03.964Z,14.45
2023-01-02T21:26:30.673Z,14.10
2023-01-02T21:28:57.433Z,14.57
2023-01-02T21:31:24.223Z,15.30
2023-01-02T21:33:51.040Z,15.57
2023-01-02T21:36:17.834Z,15.27
2023-01-02T21:38:44.718Z,16.75
2023-01-02T21:41:29.940Z,14.18
2023-01-02T21:43:56.790Z,17.30
2023-01-02T21:46:23.611Z,17.08
2023-01-02T21:48:50.459Z,15.32
2023-01-02T21:51:17.239Z,15.82
2023-01-02T21:53:44.055Z,15.43
2023-01-02T21:56:10.793Z,16.08
2023-01-02T21:58:37.501Z,16.70
2023-01-02T22:01:04.399Z,17.63
2023-01-02T22:03:31.237Z,15.40
2023-01-02T22:05:57.942Z,16.83
2023-01-02T22:08:24.649Z,16.42
2023-01-02T22:10:51.509Z,16.55
2023-01-02T22:13:18.238Z,14.98
2023-01-02T22:15:45.765Z,15.77
2023-01-02T22:18:12.816Z,16.88
2023-01-02T22:20:39.548Z,16.58
2023-01-02T22:23:06.278Z,17.33
2023-01-02T22:25:33.068Z,16.40
2023-01-02T22:27:59.777Z,16.45
2023-01-02T22:30:34.124Z,16.55
2023-01-02T22:33:01.851Z,17.30
2023-01-02T22:35:28.565Z,14.88
2023-01-02T22:37:57.295Z,17.52
2023-01-02T22:40:24.031Z,16.13
2023-01-02T22:43:09.014Z,17.50
2023-01-02T22:45:56.523Z,18.58
2023-01-02T22:48:26.616Z,17.70
2023-01-02T22:50:56.232Z,18.63
2023-01-02T22:53:28.774Z,18.27
2023-01-02T22:55:55.632Z,18.13
2023-01-02T22:58:22.448Z,16.35
2023-01-02T23:01:00.433Z,16.80
2023-01-02T23:03:28.925Z,15.20
2023-01-02T23:05:55.835Z,13.80
2023-01-02T23:08:22.726Z,14.18
2023-01-02T23:10:49.492Z,15.20
2023-01-02T23:13:16.217Z,13.85
2023-01-02T23:16:03.087Z,12.85
2023-01-02T23:18:56.034Z,13.10
2023-01-02T23:23:51.576Z,13.90
2023-01-02T23:26:18.301Z,14.60
2023-01-02T23:31:31.786Z,13.65
2023-01-02T23:33:58.612Z,15.57
2023-01-02T23:36:25.400Z,15.15
2023-01-02T23:38:52.138Z,15.38
2023-01-02T23:41:18.839Z,15.52
2023-01-02T23:43:45.618Z,15.73
2023-01-02T23:46:12.623Z,16.60
2023-01-02T23:48:39.638Z,17.65
2023-01-02T23:51:06.647Z,15.98
2023-01-02T23:53:33.442Z,15.52
2023-01-02T23:56:00.160Z,16.13
2023-01-02T23:58:26.895Z,15.27
